Time;durP1;ratioP1;P1;durP2;ratioP2;P2;SDS_P1;SDS_P2;PMS_P1;PMS_P2;Temp;Humidity;BMP_temperature;BMP_pressure;BME280_temperature;BME280_humidity;BME280_pressure;Samples;Min_cycle;Max_cycle;Signal;HPM_P1;HPM_P2
2024/01/05 00:00:35;;;;;;;71.35;39.95;;;;;;;;;;5033918;28;20466;-48
2024/01/05 00:03:01;;;;;;;71.05;38.97;;;;;;;;;;5033766;28;20052;-48
2024/01/05 00:05:27;;;;;;;70.40;39.53;;;;;;;;;;5033640;28;20061;-48
2024/01/05 00:07:53;;;;;;;75.85;37.88;;;;;;;;;;5033566;28;20491;-48
2024/01/05 00:10:21;;;;;;;78.65;40.05;;;;;;;;;;5033689;28;20104;-48
2024/01/05 00:12:47;;;;;;;;;;;;;;;;;;5034141;28;20456;-48
2024/01/05 00:15:13;;;;;;;75.22;38.95;;;;;;;;;;5033980;28;19909;-48
2024/01/05 00:17:39;;;;;;;79.85;41.00;;;;;;;;;;5033509;28;20040;-48
2024/01/05 00:20:08;;;;;;;89.93;44.53;;;;;;;;;;5015840;28;20105;-48
2024/01/05 00:22:34;;;;;;;87.13;43.80;;;;;;;;;;5033433;28;20294;-48
2024/01/05 00:25:00;;;;;;;89.75;45.08;;;;;;;;;;5033290;28;20395;-48
2024/01/05 00:27:26;;;;;;;90.63;48.30;;;;;;;;;;5028906;28;20451;-48
2024/01/05 00:29:52;;;;;;;86.28;46.65;;;;;;;;;;5011827;28;20045;-48
2024/01/05 00:32:19;;;;;;;94.70;48.83;;;;;;;;;;5011463;28;20028;-51
2024/01/05 00:34:45;;;;;;;87.57;43.85;;;;;;;;;;5013242;28;20056;-53
2024/01/05 00:37:11;;;;;;;108.82;43.65;;;;;;;;;;5013446;28;20057;-49
2024/01/05 00:39:37;;;;;;;81.72;41.75;;;;;;;;;;5013323;28;20030;-50
2024/01/05 00:42:05;;;;;;;79.00;40.85;;;;;;;;;;5012302;28;20034;-48
2024/01/05 00:44:31;;;;;;;79.45;42.15;;;;;;;;;;5013382;28;20022;-51
2024/01/05 00:46:57;;;;;;;69.87;38.57;;;;;;;;;;4979301;28;20558;-48
2024/01/05 00:49:24;;;;;;;84.28;39.03;;;;;;;;;;5013195;28;20037;-48
2024/01/05 00:51:50;;;;;;;76.60;39.97;;;;;;;;;;5013119;28;20026;-48
2024/01/05 00:54:16;;;;;;;74.70;39.40;;;;;;;;;;5013069;28;20573;-48
2024/01/05 00:56:42;;;;;;;75.65;39.05;;;;;;;;;;5013022;28;20117;-48
2024/01/05 00:59:08;;;;;;;77.93;40.17;;;;;;;;;;4995543;28;20037;-48
2024/01/05 01:01:34;;;;;;;73.25;38.85;;;;;;;;;;5012910;28;20057;-48
2024/01/05 01:04:01;;;;;;;69.05;37.50;;;;;;;;;;5012782;28;20037;-48
2024/01/05 01:06:27;;;;;;;71.00;39.30;;;;;;;;;;4979009;28;20038;-48
2024/01/05 01:08:53;;;;;;;79.75;40.38;;;;;;;;;;4995257;28;20034;-48
2024/01/05 01:11:19;;;;;;;99.88;47.53;;;;;;;;;;5012836;28;20030;-47
2024/01/05 01:13:45;;;;;;;83.28;43.03;;;;;;;;;;5012662;28;20073;-53
2024/01/05 01:16:12;;;;;;;70.47;38.80;;;;;;;;;;5012755;28;20022;-49
2024/01/05 01:18:38;;;;;;;77.65;42.20;;;;;;;;;;5012628;28;20072;-48
2024/01/05 01:21:05;;;;;;;80.00;40.35;;;;;;;;;;4995014;28;20061;-49
2024/01/05 01:23:31;;;;;;;77.27;38.77;;;;;;;;;;5013168;28;20484;-48
2024/01/05 01:25:57;;;;;;;79.35;40.35;;;;;;;;;;5032368;28;20074;-48
2024/01/05 01:28:23;;;;;;;81.18;41.70;;;;;;;;;;5073531;23;20046;-50
2024/01/05 01:30:49;;;;;;;77.93;39.58;;;;;;;;;;5032082;28;20340;-48
2024/01/05 01:33:16;;;;;;;74.07;38.53;;;;;;;;;;5032001;28;20026;-50
2024/01/05 01:35:42;;;;;;;81.80;43.35;;;;;;;;;;5032097;28;20030;-46
2024/01/05 01:38:08;;;;;;;85.55;43.25;;;;;;;;;;5020639;28;20040;-49
2024/01/05 01:40:34;;;;;;;84.35;43.47;;;;;;;;;;5032046;28;20142;-47
2024/01/05 01:43:00;;;;;;;92.93;43.57;;;;;;;;;;5031849;28;20506;-48
2024/01/05 01:45:27;;;;;;;84.45;41.80;;;;;;;;;;5031844;28;20513;-48
2024/01/05 01:47:53;;;;;;;127.95;44.40;;;;;;;;;;5031812;28;20036;-50
2024/01/05 01:50:20;;;;;;;104.13;45.28;;;;;;;;;;5031847;28;20467;-47
2024/01/05 01:52:47;;;;;;;165.02;51.63;;;;;;;;;;5031835;28;20029;-49
2024/01/05 01:55:16;;;;;;;104.75;44.20;;;;;;;;;;5031782;28;20067;-47
2024/01/05 01:57:43;;;;;;;160.25;54.00;;;;;;;;;;5031701;28;20199;-46
2024/01/05 02:00:10;;;;;;;134.70;48.97;;;;;;;;;;5030458;28;20033;-47
2024/01/05 02:02:37;;;;;;;102.82;48.65;;;;;;;;;;5031758;28;20037;-47
2024/01/05 02:05:05;;;;;;;94.38;43.28;;;;;;;;;;5030184;28;20136;-47
2024/01/05 02:07:31;;;;;;;90.70;44.10;;;;;;;;;;5031725;28;20504;-47
2024/01/05 02:09:57;;;;;;;95.70;46.03;;;;;;;;;;5031859;28;20072;-49
2024/01/05 02:12:24;;;;;;;96.20;45.85;;;;;;;;;;5031671;28;20103;-52
2024/01/05 02:14:50;;;;;;;111.17;47.37;;;;;;;;;;5030148;28;20061;-50
2024/01/05 02:17:32;;;;;;;91.50;45.67;;;;;;;;;;5031451;28;20327;-47
2024/01/05 02:19:59;;;;;;;97.15;45.85;;;;;;;;;;5031464;28;20116;-47
2024/01/05 02:22:29;;;;;;;89.03;44.00;;;;;;;;;;5031463;28;20469;-48
2024/01/05 02:24:57;;;;;;;98.10;43.60;;;;;;;;;;5030172;28;20038;-48
2024/01/05 02:27:23;;;;;;;96.03;45.58;;;;;;;;;;5031230;28;20053;-47
2024/01/05 02:29:49;;;;;;;96.33;45.33;;;;;;;;;;5030120;28;20068;-49
2024/01/05 02:32:17;;;;;;;82.63;44.25;;;;;;;;;;5031398;28;20029;-47
2024/01/05 02:34:43;;;;;;;78.72;42.10;;;;;;;;;;5031244;28;20105;-48
2024/01/05 02:37:09;;;;;;;89.30;43.67;;;;;;;;;;5030167;28;20041;-49
2024/01/05 02:39:36;;;;;;;95.53;43.90;;;;;;;;;;5013541;28;20510;-51
2024/01/05 02:42:02;;;;;;;97.57;44.80;;;;;;;;;;5031790;28;20397;-47
2024/01/05 02:44:28;;;;;;;98.97;44.80;;;;;;;;;;5013341;28;20032;-51
2024/01/05 02:46:54;;;;;;;86.38;43.50;;;;;;;;;;5029843;28;20040;-49
2024/01/05 02:49:21;;;;;;;83.13;40.95;;;;;;;;;;5031233;28;20021;-49
2024/01/05 02:51:47;;;;;;;83.35;42.05;;;;;;;;;;5031338;28;20032;-50
2024/01/05 02:54:14;;;;;;;85.97;44.42;;;;;;;;;;5032867;28;20028;-49
2024/01/05 02:56:40;;;;;;;94.32;44.58;;;;;;;;;;5017415;28;20475;-49
2024/01/05 02:59:06;;;;;;;82.07;43.43;;;;;;;;;;5034986;28;20505;-49
2024/01/05 03:01:32;;;;;;;87.07;43.03;;;;;;;;;;5035076;28;20025;-49
2024/01/05 03:04:00;;;;;;;86.35;42.33;;;;;;;;;;5034913;28;20750;-51
2024/01/05 03:06:26;;;;;;;83.60;44.53;;;;;;;;;;5035061;28;20365;-47
2024/01/05 03:08:53;;;;;;;78.40;41.42;;;;;;;;;;5034818;28;20025;-49
2024/01/05 03:11:19;;;;;;;87.78;43.03;;;;;;;;;;5034857;28;20080;-47
2024/01/05 03:13:45;;;;;;;82.65;42.28;;;;;;;;;;5034635;28;20072;-47
2024/01/05 03:16:11;;;;;;;77.68;40.60;;;;;;;;;;5034987;28;20097;-48
2024/01/05 03:18:38;;;;;;;80.35;41.50;;;;;;;;;;5034670;28;20052;-47
2024/01/05 03:21:04;;;;;;;76.53;40.60;;;;;;;;;;5033588;28;20037;-46
2024/01/05 03:23:30;;;;;;;75.95;37.85;;;;;;;;;;5033224;28;20029;-46
2024/01/05 03:25:59;;;;;;;81.13;41.25;;;;;;;;;;5034665;28;20025;-49
2024/01/05 03:28:26;;;;;;;80.20;40.60;;;;;;;;;;5016377;28;20515;-47
2024/01/05 03:30:52;;;;;;;;;;;;;;;;;;5035031;28;20104;-50
2024/01/05 03:33:21;;;;;;;77.05;41.38;;;;;;;;;;5033677;28;19924;-46
2024/01/05 03:35:48;;;;;;;77.28;40.75;;;;;;;;;;5033153;28;20087;-48
2024/01/05 03:38:14;;;;;;;81.85;42.55;;;;;;;;;;5034228;28;20029;-48
2024/01/05 03:40:40;;;;;;;78.97;40.28;;;;;;;;;;5034295;28;20029;-49
2024/01/05 03:43:06;;;;;;;77.15;39.55;;;;;;;;;;5033965;28;20025;-48
2024/01/05 03:45:32;;;;;;;75.57;41.35;;;;;;;;;;5034204;28;20044;-47
2024/01/05 03:47:58;;;;;;;81.28;41.60;;;;;;;;;;5032796;28;20072;-47
2024/01/05 03:50:25;;;;;;;74.65;38.25;;;;;;;;;;5034542;28;20030;-48
2024/01/05 03:52:51;;;;;;;73.43;40.95;;;;;;;;;;5034090;28;20026;-51
2024/01/05 03:55:17;;;;;;;81.55;40.75;;;;;;;;;;5032525;28;20104;-48
2024/01/05 03:57:44;;;;;;;73.90;39.63;;;;;;;;;;5033816;28;20029;-49
2024/01/05 04:00:10;;;;;;;84.57;42.15;;;;;;;;;;5033040;28;20041;-50
2024/01/05 04:02:36;;;;;;;73.13;40.78;;;;;;;;;;5014809;28;20080;-50
2024/01/05 04:05:03;;;;;;;75.57;40.42;;;;;;;;;;5012640;28;20041;-47
2024/01/05 04:07:29;;;;;;;70.70;38.97;;;;;;;;;;5013867;28;20061;-50
2024/01/05 04:09:55;;;;;;;77.07;38.80;;;;;;;;;;5026509;28;20506;-48
2024/01/05 04:12:21;;;;;;;73.00;39.53;;;;;;;;;;5017556;28;20030;-52
2024/01/05 04:14:48;;;;;;;77.93;41.25;;;;;;;;;;5023074;28;20030;-47
2024/01/05 04:17:15;;;;;;;73.53;40.28;;;;;;;;;;5020758;28;20033;-52
2024/01/05 04:19:41;;;;;;;74.50;41.22;;;;;;;;;;5033318;28;20400;-50
2024/01/05 04:22:07;;;;;;;74.68;40.17;;;;;;;;;;5025374;28;20083;-48
2024/01/05 04:24:33;;;;;;;74.90;40.63;;;;;;;;;;5013814;28;20040;-49
2024/01/05 04:26:59;;;;;;;82.38;41.60;;;;;;;;;;5013442;28;20080;-51
2024/01/05 04:29:26;;;;;;;81.97;43.83;;;;;;;;;;5013607;28;20036;-49
2024/01/05 04:31:52;;;;;;;75.78;42.58;;;;;;;;;;5027841;28;20384;-51
2024/01/05 04:34:18;;;;;;;74.03;40.90;;;;;;;;;;5023196;28;20026;-53
2024/01/05 04:36:44;;;;;;;82.63;40.40;;;;;;;;;;5027774;28;20080;-53
2024/01/05 04:39:12;;;;;;;75.15;41.97;;;;;;;;;;5025893;28;20026;-53
2024/01/05 04:41:38;;;;;;;75.70;40.58;;;;;;;;;;5032873;28;20063;-51
2024/01/05 04:44:05;;;;;;;70.90;39.97;;;;;;;;;;5024862;28;20029;-47
2024/01/05 04:46:31;;;;;;;71.38;40.53;;;;;;;;;;5023334;28;20047;-46
2024/01/05 04:48:57;;;;;;;73.70;40.75;;;;;;;;;;5032522;28;20248;-48
2024/01/05 04:51:23;;;;;;;80.35;42.60;;;;;;;;;;5031786;28;20033;-45
2024/01/05 04:53:49;;;;;;;74.95;41.35;;;;;;;;;;5022379;28;20121;-48
2024/01/05 04:56:16;;;;;;;68.32;39.83;;;;;;;;;;5013117;28;20109;-46
2024/01/05 04:58:42;;;;;;;78.87;40.77;;;;;;;;;;5012563;28;20034;-47
2024/01/05 05:01:08;;;;;;;72.28;40.72;;;;;;;;;;5012635;28;20571;-47
2024/01/05 05:03:36;;;;;;;73.60;41.57;;;;;;;;;;5013378;28;20026;-46
2024/01/05 05:06:02;;;;;;;75.07;41.08;;;;;;;;;;5012773;28;20030;-48
2024/01/05 05:08:29;;;;;;;71.53;40.67;;;;;;;;;;5012815;28;20068;-48
2024/01/05 05:10:55;;;;;;;73.68;40.38;;;;;;;;;;5013057;28;20022;-48
2024/01/05 05:13:21;;;;;;;73.93;41.58;;;;;;;;;;5011458;28;20037;-48
2024/01/05 05:15:47;;;;;;;77.82;41.58;;;;;;;;;;5012767;28;20499;-49
2024/01/05 05:18:13;;;;;;;71.65;41.75;;;;;;;;;;5012470;28;20406;-48
2024/01/05 05:20:40;;;;;;;74.87;41.10;;;;;;;;;;5012763;28;20034;-47
2024/01/05 05:23:06;;;;;;;73.97;40.72;;;;;;;;;;5011244;28;20117;-49
2024/01/05 05:25:33;;;;;;;76.78;43.30;;;;;;;;;;5012707;28;20485;-48
2024/01/05 05:27:59;;;;;;;77.22;43.78;;;;;;;;;;5012385;28;20026;-46
2024/01/05 05:30:25;;;;;;;83.57;45.03;;;;;;;;;;5012601;28;20025;-51
2024/01/05 05:32:51;;;;;;;80.55;44.08;;;;;;;;;;5012633;28;20038;-48
2024/01/05 05:35:18;;;;;;;79.90;42.90;;;;;;;;;;5021377;28;20025;-50
2024/01/05 05:37:44;;;;;;;71.78;41.05;;;;;;;;;;5015182;28;20044;-48
2024/01/05 05:40:11;;;;;;;72.85;41.20;;;;;;;;;;5016052;28;20542;-47
2024/01/05 05:42:37;;;;;;;69.20;42.17;;;;;;;;;;5021938;28;20044;-47
2024/01/05 05:45:04;;;;;;;77.38;43.03;;;;;;;;;;5012028;28;20550;-47
2024/01/05 05:47:30;;;;;;;77.50;41.20;;;;;;;;;;5012198;28;20025;-49
2024/01/05 05:49:56;;;;;;;75.53;42.40;;;;;;;;;;5012205;28;20033;-48
2024/01/05 05:52:23;;;;;;;74.82;41.60;;;;;;;;;;5012329;28;20080;-49
2024/01/05 05:54:49;;;;;;;69.22;40.72;;;;;;;;;;5012136;28;20022;-46
2024/01/05 05:57:15;;;;;;;75.38;41.22;;;;;;;;;;5010880;28;20124;-48
2024/01/05 05:59:42;;;;;;;66.32;39.67;;;;;;;;;;5010992;28;20040;-47
2024/01/05 06:02:08;;;;;;;79.80;42.95;;;;;;;;;;5010963;28;20504;-47
2024/01/05 06:04:34;;;;;;;72.85;39.63;;;;;;;;;;5011904;28;20041;-48
2024/01/05 06:07:01;;;;;;;79.40;43.22;;;;;;;;;;5011902;28;20029;-48
2024/01/05 06:09:27;;;;;;;77.57;40.75;;;;;;;;;;5011891;28;20423;-47
2024/01/05 06:11:53;;;;;;;80.30;41.50;;;;;;;;;;5012010;28;20111;-47
2024/01/05 06:14:19;;;;;;;71.22;40.13;;;;;;;;;;4994235;28;20022;-51
2024/01/05 06:16:45;;;;;;;74.75;40.13;;;;;;;;;;5012094;28;20034;-48
2024/01/05 06:19:13;;;;;;;69.03;39.03;;;;;;;;;;5011972;28;20034;-48
2024/01/05 06:21:39;;;;;;;72.15;39.03;;;;;;;;;;5010811;28;20547;-49
2024/01/05 06:24:05;;;;;;;73.00;41.73;;;;;;;;;;5010634;28;20046;-47
2024/01/05 06:26:31;;;;;;;69.88;38.78;;;;;;;;;;5011831;28;20331;-49
2024/01/05 06:28:58;;;;;;;69.18;38.33;;;;;;;;;;5013240;28;20084;-47
2024/01/05 06:31:24;;;;;;;70.47;39.45;;;;;;;;;;5016047;28;20037;-51
2024/01/05 06:33:50;;;;;;;69.68;40.33;;;;;;;;;;5015812;28;20041;-47
2024/01/05 06:36:16;;;;;;;78.72;42.58;;;;;;;;;;5015802;28;20033;-48
2024/01/05 06:38:43;;;;;;;80.65;42.75;;;;;;;;;;5015654;28;20045;-50
2024/01/05 06:41:09;;;;;;;96.88;55.97;;;;;;;;;;5015749;28;20033;-49
2024/01/05 06:43:35;;;;;;;102.22;57.78;;;;;;;;;;4997940;28;20412;-48
2024/01/05 06:46:01;;;;;;;75.25;40.88;;;;;;;;;;5015640;28;20199;-49
2024/01/05 06:48:27;;;;;;;76.47;45.42;;;;;;;;;;5015457;28;20034;-50
2024/01/05 06:50:54;;;;;;;77.63;45.03;;;;;;;;;;5014395;28;20049;-48
2024/01/05 06:53:20;;;;;;;76.97;43.45;;;;;;;;;;5015329;28;20032;-48
2024/01/05 06:55:46;;;;;;;72.82;40.63;;;;;;;;;;5015512;28;20443;-48
2024/01/05 06:58:12;;;;;;;77.95;42.30;;;;;;;;;;5015499;28;20041;-49
2024/01/05 07:00:39;;;;;;;80.75;44.28;;;;;;;;;;5015361;28;20026;-47
2024/01/05 07:03:05;;;;;;;77.78;43.22;;;;;;;;;;5015126;28;20036;-49
2024/01/05 07:05:31;;;;;;;82.68;46.78;;;;;;;;;;5015484;28;20033;-52
2024/01/05 07:07:57;;;;;;;77.43;44.70;;;;;;;;;;5015134;28;20080;-48
2024/01/05 07:10:23;;;;;;;81.03;44.88;;;;;;;;;;5014040;28;20524;-48
2024/01/05 07:12:49;;;;;;;84.72;45.92;;;;;;;;;;5015241;28;20065;-50
2024/01/05 07:15:16;;;;;;;79.10;45.70;;;;;;;;;;5015129;28;20526;-50
2024/01/05 07:17:44;;;;;;;83.40;43.35;;;;;;;;;;5014964;28;20091;-50
2024/01/05 07:20:11;;;;;;;79.35;43.83;;;;;;;;;;5015084;28;20061;-48
2024/01/05 07:22:38;;;;;;;80.13;42.35;;;;;;;;;;5013788;28;20030;-48
2024/01/05 07:25:05;;;;;;;86.20;43.70;;;;;;;;;;5013554;28;20041;-51
2024/01/05 07:27:32;;;;;;;83.53;43.88;;;;;;;;;;5014875;28;20052;-49
2024/01/05 07:29:58;;;;;;;81.03;45.42;;;;;;;;;;5012332;28;20472;-48
2024/01/05 07:32:24;;;;;;;81.50;45.90;;;;;;;;;;5025545;28;20022;-51
2024/01/05 07:34:50;;;;;;;89.90;48.70;;;;;;;;;;5032265;28;20030;-49
2024/01/05 07:37:18;;;;;;;88.15;47.42;;;;;;;;;;5023962;28;20430;-49
2024/01/05 07:39:44;;;;;;;94.20;47.45;;;;;;;;;;5027808;28;20034;-47
2024/01/05 07:42:10;;;;;;;84.63;44.73;;;;;;;;;;5008038;28;20029;-47
2024/01/05 07:44:36;;;;;;;85.40;45.78;;;;;;;;;;5015773;28;20033;-47
2024/01/05 07:47:03;;;;;;;84.30;46.80;;;;;;;;;;5015655;28;20072;-47
2024/01/05 07:49:29;;;;;;;88.03;46.37;;;;;;;;;;4995979;28;20038;-48
2024/01/05 07:51:55;;;;;;;83.45;45.38;;;;;;;;;;5018929;28;20026;-47
2024/01/05 07:54:21;;;;;;;76.53;46.17;;;;;;;;;;5022744;28;20387;-48
2024/01/05 07:56:48;;;;;;;88.13;44.72;;;;;;;;;;5019536;28;20109;-51
2024/01/05 07:59:15;;;;;;;79.75;43.30;;;;;;;;;;5014108;28;20068;-49
2024/01/05 08:01:41;;;;;;;81.60;43.20;;;;;;;;;;5020040;28;20041;-48
2024/01/05 08:04:08;;;;;;;82.57;42.67;;;;;;;;;;5032729;28;20439;-47
2024/01/05 08:06:34;;;;;;;82.75;44.40;;;;;;;;;;5024283;28;20507;-47
2024/01/05 08:09:00;;;;;;;74.45;41.58;;;;;;;;;;5012997;28;20026;-47
2024/01/05 08:11:26;;;;;;;83.38;44.63;;;;;;;;;;5024213;28;20033;-50
2024/01/05 08:13:52;;;;;;;83.35;44.08;;;;;;;;;;5011603;28;20021;-51
2024/01/05 08:16:19;;;;;;;88.53;45.15;;;;;;;;;;5023852;28;20487;-49
2024/01/05 08:18:46;;;;;;;83.55;43.42;;;;;;;;;;5012846;28;20037;-52
2024/01/05 08:21:12;;;;;;;89.28;50.38;;;;;;;;;;5022958;28;20029;-48
2024/01/05 08:23:38;;;;;;;93.55;50.88;;;;;;;;;;5013697;28;20084;-47
2024/01/05 08:26:04;;;;;;;90.32;46.20;;;;;;;;;;5021893;28;20066;-47
2024/01/05 08:28:31;;;;;;;97.50;54.47;;;;;;;;;;4953810;28;1275640;-46
2024/01/05 08:30:57;;;;;;;96.03;56.08;;;;;;;;;;5021714;28;20487;-47
2024/01/05 08:33:23;;;;;;;112.18;62.40;;;;;;;;;;5033475;28;20440;-47
2024/01/05 08:35:49;;;;;;;116.47;64.10;;;;;;;;;;5027021;28;20033;-47
2024/01/05 08:38:15;;;;;;;84.13;47.77;;;;;;;;;;5017560;28;20030;-47
2024/01/05 08:40:42;;;;;;;83.03;47.90;;;;;;;;;;5019209;28;20174;-48
2024/01/05 08:43:10;;;;;;;88.68;46.65;;;;;;;;;;5018416;28;20075;-48
2024/01/05 08:45:36;;;;;;;75.32;44.60;;;;;;;;;;5018501;28;20057;-47
2024/01/05 08:48:02;;;;;;;78.83;44.60;;;;;;;;;;5019053;28;20473;-48
2024/01/05 08:50:28;;;;;;;79.50;44.55;;;;;;;;;;5017141;28;20028;-48
2024/01/05 08:52:54;;;;;;;79.80;43.95;;;;;;;;;;5019561;28;20022;-48
2024/01/05 08:55:21;;;;;;;82.97;47.00;;;;;;;;;;5016007;28;20424;-53
2024/01/05 08:57:48;;;;;;;83.97;44.35;;;;;;;;;;5021096;28;20026;-49
2024/01/05 09:00:15;;;;;;;83.63;46.55;;;;;;;;;;5015593;28;20508;-50
2024/01/05 09:02:41;;;;;;;79.28;46.80;;;;;;;;;;5021799;28;20030;-52
2024/01/05 09:05:07;;;;;;;82.55;46.90;;;;;;;;;;5015347;28;20026;-51
2024/01/05 09:07:34;;;;;;;88.13;47.80;;;;;;;;;;5021355;28;20077;-53
2024/01/05 09:10:00;;;;;;;77.47;42.72;;;;;;;;;;5015185;28;20360;-53
2024/01/05 09:12:27;;;;;;;77.40;44.63;;;;;;;;;;5021667;28;20193;-46
2024/01/05 09:14:54;;;;;;;76.85;43.72;;;;;;;;;;5011869;28;20315;-46
2024/01/05 09:17:20;;;;;;;78.95;44.03;;;;;;;;;;5011615;28;20038;-47
2024/01/05 09:19:46;;;;;;;79.97;43.67;;;;;;;;;;5011850;28;20488;-46
2024/01/05 09:22:12;;;;;;;77.38;43.97;;;;;;;;;;5011437;28;20037;-49
2024/01/05 09:24:39;;;;;;;75.13;41.88;;;;;;;;;;5012572;28;20029;-47
2024/01/05 09:27:05;;;;;;;80.32;44.85;;;;;;;;;;5030458;28;20091;-47
2024/01/05 09:29:32;;;;;;;75.00;42.33;;;;;;;;;;5032396;28;20038;-47
2024/01/05 09:31:58;;;;;;;71.20;40.63;;;;;;;;;;5032480;28;20026;-49
2024/01/05 09:34:24;;;;;;;79.47;43.97;;;;;;;;;;5030842;28;20510;-46
2024/01/05 09:36:51;;;;;;;74.43;42.78;;;;;;;;;;5032282;28;20464;-47
2024/01/05 09:39:17;;;;;;;72.85;41.13;;;;;;;;;;5032098;28;20101;-47
2024/01/05 09:41:46;;;;;;;71.55;39.90;;;;;;;;;;5032243;28;20071;-47
2024/01/05 09:44:13;;;;;;;75.05;40.72;;;;;;;;;;5014349;28;20599;-47
2024/01/05 09:46:39;;;;;;;69.53;41.40;;;;;;;;;;5032169;28;20117;-47
2024/01/05 09:49:06;;;;;;;68.22;40.13;;;;;;;;;;5032050;28;20541;-47
2024/01/05 09:51:33;;;;;;;65.75;37.60;;;;;;;;;;5031973;28;20116;-46
2024/01/05 09:53:59;;;;;;;66.17;38.13;;;;;;;;;;5030491;28;20439;-47
2024/01/05 09:56:27;;;;;;;63.80;36.45;;;;;;;;;;5031995;28;20033;-47
2024/01/05 09:58:54;;;;;;;69.03;38.55;;;;;;;;;;5030577;28;20036;-47
2024/01/05 10:01:21;;;;;;;;;;;;;;;;;;5032391;28;20033;-49
2024/01/05 10:03:48;;;;;;;64.28;34.53;;;;;;;;;;5030428;28;20367;-47
2024/01/05 10:06:14;;;;;;;;;;;;;;;;;;5032235;28;20045;-49
2024/01/05 10:08:40;;;;;;;65.00;34.97;;;;;;;;;;5030305;28;20279;-52
2024/01/05 10:11:07;;;;;;;60.55;34.58;;;;;;;;;;5031685;28;20029;-47
2024/01/05 10:13:33;;;;;;;62.47;35.20;;;;;;;;;;5030261;28;20550;-46
2024/01/05 10:16:02;;;;;;;70.03;34.28;;;;;;;;;;5031574;28;20113;-48
2024/01/05 10:18:29;;;;;;;74.15;36.70;;;;;;;;;;5031502;28;20033;-49
2024/01/05 10:20:55;;;;;;;72.60;39.65;;;;;;;;;;5031542;28;20087;-46
2024/01/05 10:23:22;;;;;;;67.60;35.53;;;;;;;;;;5030111;28;20040;-46
2024/01/05 10:25:49;;;;;;;66.80;35.33;;;;;;;;;;5030327;28;20040;-47
2024/01/05 10:28:15;;;;;;;;;;;;;;;;;;5030416;28;20064;-46
2024/01/05 10:30:42;;;;;;;72.35;36.97;;;;;;;;;;5031494;28;19948;-47
2024/01/05 10:33:09;;;;;;;72.30;38.88;;;;;;;;;;5030053;28;20040;-46
2024/01/05 10:35:35;;;;;;;85.28;44.50;;;;;;;;;;5031421;28;20227;-47
2024/01/05 10:38:05;;;;;;;99.55;51.22;;;;;;;;;;5031395;28;20041;-46
2024/01/05 10:40:32;;;;;;;92.55;47.90;;;;;;;;;;5031409;28;20034;-48
2024/01/05 10:43:11;;;;;;;81.22;42.30;;;;;;;;;;5031302;28;20411;-47
2024/01/05 10:45:39;;;;;;;75.72;40.25;;;;;;;;;;5031341;28;20068;-47
2024/01/05 10:48:07;;;;;;;76.00;41.38;;;;;;;;;;5029743;28;20026;-47
2024/01/05 10:50:34;;;;;;;97.72;49.92;;;;;;;;;;5031447;28;20562;-47
2024/01/05 10:53:07;;;;;;;84.18;49.13;;;;;;;;;;5030037;28;20060;-46
2024/01/05 10:55:35;;;;;;;60.05;35.20;;;;;;;;;;5031276;28;20037;-47
2024/01/05 10:58:01;;;;;;;;;;;;;;;;;;5031565;28;20100;-50
2024/01/05 11:00:28;;;;;;;62.33;34.70;;;;;;;;;;5031157;28;19909;-48
2024/01/05 11:03:02;;;;;;;61.45;32.13;;;;;;;;;;5031073;28;20034;-46
2024/01/05 11:05:29;;;;;;;55.55;31.42;;;;;;;;;;5031189;28;20038;-47
2024/01/05 11:07:56;;;;;;;46.38;29.30;;;;;;;;;;5030851;28;20087;-48
2024/01/05 11:10:28;;;;;;;47.28;28.88;;;;;;;;;;5029870;28;20076;-47
2024/01/05 11:13:00;;;;;;;41.83;26.73;;;;;;;;;;5029924;28;20052;-47
2024/01/05 11:15:45;;;;;;;50.97;25.33;;;;;;;;;;5033125;28;20033;-48
2024/01/05 11:18:27;;;;;;;43.10;24.05;;;;;;;;;;5033460;28;20037;-47
2024/01/05 11:21:11;;;;;;;36.85;22.30;;;;;;;;;;5034720;28;20037;-47
2024/01/05 11:23:38;;;;;;;35.70;21.45;;;;;;;;;;5033370;28;20091;-49
2024/01/05 11:26:05;;;;;;;37.28;21.33;;;;;;;;;;5034717;28;20088;-48
2024/01/05 11:28:38;;;;;;;32.08;21.30;;;;;;;;;;5034361;28;20056;-47
2024/01/05 11:31:06;;;;;;;30.52;19.08;;;;;;;;;;5034513;28;20025;-47
2024/01/05 11:33:43;;;;;;;27.10;17.90;;;;;;;;;;5034262;28;20099;-47
2024/01/05 11:36:09;;;;;;;28.50;18.88;;;;;;;;;;5033125;28;20052;-48
2024/01/05 11:38:42;;;;;;;27.90;19.33;;;;;;;;;;5034457;28;20030;-50
2024/01/05 11:41:18;;;;;;;26.73;16.60;;;;;;;;;;5034345;28;20030;-47
2024/01/05 11:43:44;;;;;;;25.88;16.00;;;;;;;;;;5030524;28;20021;-50
2024/01/05 11:46:11;;;;;;;25.60;17.08;;;;;;;;;;5028584;28;20515;-47
2024/01/05 11:48:37;;;;;;;26.77;17.10;;;;;;;;;;5033920;28;20407;-47
2024/01/05 11:51:03;;;;;;;23.80;15.77;;;;;;;;;;5016613;28;20022;-51
2024/01/05 11:53:30;;;;;;;31.77;21.17;;;;;;;;;;5017442;28;20056;-49
2024/01/05 11:55:58;;;;;;;28.45;19.90;;;;;;;;;;5019399;28;20025;-48
2024/01/05 11:58:29;;;;;;;33.67;21.67;;;;;;;;;;5012693;28;20033;-48
2024/01/05 12:00:56;;;;;;;35.08;22.45;;;;;;;;;;5016741;28;20037;-48
2024/01/05 12:03:24;;;;;;;;;;;;;;;;;;5031152;28;20550;-49
2024/01/05 12:05:51;;;;;;;36.53;22.02;;;;;;;;;;5016648;28;19909;-47
2024/01/05 12:08:18;;;;;;;32.55;20.35;;;;;;;;;;5015833;28;20061;-47
2024/01/05 12:10:44;;;;;;;29.53;19.40;;;;;;;;;;5028217;28;20496;-48
2024/01/05 12:13:10;;;;;;;35.40;19.58;;;;;;;;;;5019287;28;20797;-49
2024/01/05 12:15:37;;;;;;;37.85;23.15;;;;;;;;;;5016857;28;20105;-49
2024/01/05 12:18:04;;;;;;;32.75;22.50;;;;;;;;;;5011366;28;20072;-50
2024/01/05 12:20:30;;;;;;;34.17;22.23;;;;;;;;;;5021464;28;20037;-49
2024/01/05 12:22:57;;;;;;;30.95;20.73;;;;;;;;;;5025165;28;20029;-50
2024/01/05 12:25:23;;;;;;;33.40;22.80;;;;;;;;;;5030089;28;20024;-49
2024/01/05 12:27:50;;;;;;;52.72;23.23;;;;;;;;;;5018862;28;20029;-48
2024/01/05 12:30:17;;;;;;;41.22;25.55;;;;;;;;;;5012207;28;20041;-49
2024/01/05 12:32:43;;;;;;;36.47;22.90;;;;;;;;;;5031847;28;20041;-48
2024/01/05 12:35:09;;;;;;;37.47;23.23;;;;;;;;;;5025815;28;20439;-49
2024/01/05 12:37:36;;;;;;;38.87;25.67;;;;;;;;;;5019587;28;20131;-51
2024/01/05 12:40:10;;;;;;;36.35;23.02;;;;;;;;;;5019325;28;20037;-49
2024/01/05 12:42:39;;;;;;;37.95;24.77;;;;;;;;;;5024019;28;20037;-50
2024/01/05 12:45:09;;;;;;;42.40;28.30;;;;;;;;;;5016528;28;20534;-51
2024/01/05 12:47:35;;;;;;;43.92;28.90;;;;;;;;;;5030255;28;20036;-47
2024/01/05 12:50:03;;;;;;;38.65;24.23;;;;;;;;;;5018480;28;20045;-48
2024/01/05 12:52:49;;;;;;;37.97;25.10;;;;;;;;;;5010553;28;20472;-48
2024/01/05 12:55:32;;;;;;;40.38;24.73;;;;;;;;;;5011628;28;20033;-50
2024/01/05 12:58:04;;;;;;;36.92;23.58;;;;;;;;;;5029101;28;20563;-51
2024/01/05 13:00:32;;;;;;;37.53;24.70;;;;;;;;;;5023050;28;20052;-48
2024/01/05 13:02:58;;;;;;;35.20;23.33;;;;;;;;;;5031219;28;20029;-51
2024/01/05 13:05:28;;;;;;;36.07;24.83;;;;;;;;;;5029385;28;20892;-50
2024/01/05 13:07:54;;;;;;;32.45;21.95;;;;;;;;;;5030046;28;20345;-53
2024/01/05 13:10:21;;;;;;;40.93;24.23;;;;;;;;;;5030714;28;20022;-51
2024/01/05 13:12:48;;;;;;;35.47;21.67;;;;;;;;;;5020549;28;20029;-51
2024/01/05 13:15:14;;;;;;;33.00;21.77;;;;;;;;;;5012701;28;20041;-51
2024/01/05 13:17:46;;;;;;;33.97;19.95;;;;;;;;;;5029847;28;20044;-47
2024/01/05 13:20:17;;;;;;;36.80;22.45;;;;;;;;;;5021326;28;20485;-49
2024/01/05 13:22:43;;;;;;;32.15;20.98;;;;;;;;;;5019595;28;20060;-47
2024/01/05 13:25:11;;;;;;;26.80;18.63;;;;;;;;;;5029232;28;20488;-48
2024/01/05 13:27:38;;;;;;;30.98;20.88;;;;;;;;;;5030899;28;20056;-48
2024/01/05 13:30:09;;;;;;;29.00;20.27;;;;;;;;;;5030555;28;20099;-49
2024/01/05 13:32:38;;;;;;;25.83;16.25;;;;;;;;;;5011105;28;20118;-47
2024/01/05 13:35:05;;;;;;;24.50;16.63;;;;;;;;;;5012066;28;20110;-46
2024/01/05 13:37:32;;;;;;;27.08;17.00;;;;;;;;;;5007463;28;20044;-50
2024/01/05 13:39:58;;;;;;;28.05;17.67;;;;;;;;;;5010764;28;20114;-48
2024/01/05 13:42:27;;;;;;;27.30;18.27;;;;;;;;;;5010937;28;20033;-47
2024/01/05 13:44:53;;;;;;;29.63;16.88;;;;;;;;;;5023540;28;20495;-47
2024/01/05 13:47:19;;;;;;;26.27;17.03;;;;;;;;;;5009053;28;20140;-48
2024/01/05 13:49:45;;;;;;;26.58;18.15;;;;;;;;;;5022484;28;20040;-46
2024/01/05 13:52:12;;;;;;;24.15;17.13;;;;;;;;;;5030556;28;20025;-49
2024/01/05 13:54:38;;;;;;;25.95;18.85;;;;;;;;;;5019208;28;20022;-47
2024/01/05 13:57:04;;;;;;;31.00;17.42;;;;;;;;;;5010612;28;20112;-47
2024/01/05 13:59:30;;;;;;;26.20;16.77;;;;;;;;;;5010554;28;20100;-48
2024/01/05 14:01:56;;;;;;;26.02;15.25;;;;;;;;;;5008389;28;20034;-48
2024/01/05 14:04:22;;;;;;;24.27;15.93;;;;;;;;;;5021072;28;20033;-48
2024/01/05 14:06:49;;;;;;;26.13;14.85;;;;;;;;;;5026255;28;20053;-47
2024/01/05 14:09:15;;;;;;;27.80;14.82;;;;;;;;;;5030160;28;20021;-51
2024/01/05 14:11:41;;;;;;;24.93;15.33;;;;;;;;;;5024473;28;20022;-51
2024/01/05 14:14:07;;;;;;;20.75;14.98;;;;;;;;;;5012808;28;20025;-47
2024/01/05 14:16:34;;;;;;;17.77;12.07;;;;;;;;;;5021862;28;20034;-47